Time;durP1;ratioP1;P1;durP2;ratioP2;P2;SDS_P1;SDS_P2;PMS_P1;PMS_P2;Temp;Humidity;BMP_temperature;BMP_pressure;BME280_temperature;BME280_humidity;BME280_pressure;Samples;Min_cycle;Max_cycle;Signal;HPM_P1;HPM_P2
2023/01/12 00:02:04;;;;;;;14.15;2.40;;;6.30;99.90;;;;;;4699486;28;10000218;-79
2023/01/12 00:04:30;;;;;;;14.45;2.60;;;6.30;99.90;;;;;;5066577;28;20532;-79
2023/01/12 00:06:56;;;;;;;10.68;2.30;;;6.30;99.90;;;;;;5066601;28;20461;-79
2023/01/12 00:09:22;;;;;;;15.13;2.63;;;6.20;99.90;;;;;;5069511;28;20032;-78
2023/01/12 00:11:47;;;;;;;12.57;2.55;;;6.20;99.90;;;;;;5072990;28;20034;-79
2023/01/12 00:14:13;;;;;;;13.05;2.30;;;6.20;99.90;;;;;;5076410;28;20033;-79
2023/01/12 00:16:42;;;;;;;16.58;2.90;;;6.20;99.90;;;;;;5071065;28;20043;-79
2023/01/12 00:19:18;;;;;;;12.98;2.60;;;6.20;99.90;;;;;;5064968;28;20477;-79
2023/01/12 00:21:56;;;;;;;16.60;2.58;;;6.20;99.90;;;;;;5063383;28;20078;-78
2023/01/12 00:24:36;;;;;;;18.17;3.17;;;6.20;99.90;;;;;;5055495;28;20052;-78
2023/01/12 00:27:12;;;;;;;14.57;2.88;;;6.20;99.90;;;;;;5069960;28;20024;-79
2023/01/12 00:29:37;;;;;;;16.98;2.35;;;6.20;99.90;;;;;;5055469;28;20043;-78
2023/01/12 00:32:04;;;;;;;19.27;2.80;;;6.20;99.90;;;;;;5070730;28;20766;-79
2023/01/12 00:34:30;;;;;;;14.73;2.60;;;6.20;99.90;;;;;;5069632;28;20028;-79
2023/01/12 00:36:58;;;;;;;20.85;3.13;;;6.20;99.90;;;;;;5062550;28;20028;-78
2023/01/12 00:39:23;;;;;;;14.23;2.30;;;6.20;99.90;;;;;;5063909;28;20039;-79
2023/01/12 00:47:18;;;;;;;9.48;2.67;;;6.20;99.90;;;;;;5073407;28;20092;-78
2023/01/12 00:49:44;;;;;;;14.65;2.72;;;6.20;99.90;;;;;;5075912;28;20639;-78
2023/01/12 00:52:12;;;;;;;14.70;2.80;;;6.20;99.90;;;;;;5066621;28;20028;-78
2023/01/12 00:54:38;;;;;;;14.55;2.70;;;6.20;99.90;;;;;;5069422;28;20594;-78
2023/01/12 00:57:04;;;;;;;12.60;2.65;;;6.20;99.90;;;;;;5064369;28;20033;-78
2023/01/12 00:59:30;;;;;;;11.90;2.50;;;6.20;99.90;;;;;;5054648;28;20033;-78
2023/01/12 01:01:56;;;;;;;14.63;2.78;;;6.20;99.90;;;;;;5060770;28;20477;-78
2023/01/12 01:04:22;;;;;;;18.40;3.08;;;6.20;99.90;;;;;;5062248;28;20032;-78
2023/01/12 01:06:47;;;;;;;19.40;3.80;;;6.20;99.90;;;;;;5066715;28;20385;-78
2023/01/12 01:09:13;;;;;;;13.57;2.40;;;6.20;99.90;;;;;;5039420;28;20020;-78
2023/01/12 01:11:39;;;;;;;20.23;3.08;;;6.20;99.90;;;;;;5066323;28;20032;-78
2023/01/12 01:14:05;;;;;;;15.02;2.88;;;6.20;99.90;;;;;;5071005;28;20024;-78
2023/01/12 01:16:31;;;;;;;15.07;2.17;;;6.20;99.90;;;;;;5058603;28;20133;-78
2023/01/12 01:18:57;;;;;;;13.80;2.47;;;6.20;99.90;;;;;;5061212;28;20115;-78
2023/01/12 01:21:23;;;;;;;14.52;2.67;;;6.20;99.90;;;;;;5068162;28;20116;-78
2023/01/12 01:23:48;;;;;;;18.10;2.67;;;6.20;99.90;;;;;;5066357;28;20451;-78
2023/01/12 01:26:16;;;;;;;19.25;2.60;;;6.20;99.90;;;;;;5070242;28;20107;-78
2023/01/12 01:28:43;;;;;;;12.25;2.17;;;6.20;99.90;;;;;;5062005;28;20021;-78
2023/01/12 01:31:10;;;;;;;14.00;2.17;;;6.20;99.90;;;;;;5068873;28;20029;-78
2023/01/12 01:33:36;;;;;;;19.65;4.07;;;6.20;99.90;;;;;;5063703;28;20893;-78
2023/01/12 01:36:02;;;;;;;15.93;2.75;;;6.20;99.90;;;;;;5066207;28;20102;-78
2023/01/12 01:38:28;;;;;;;14.65;2.40;;;6.20;99.90;;;;;;5067502;28;20511;-78
2023/01/12 01:40:54;;;;;;;19.58;3.08;;;6.20;99.90;;;;;;5077345;28;20044;-77
2023/01/12 01:43:22;;;;;;;18.55;2.78;;;6.30;99.90;;;;;;5063521;28;20020;-77
2023/01/12 01:46:00;;;;;;;12.30;2.58;;;6.30;99.90;;;;;;5072718;28;20043;-78
2023/01/12 01:48:30;;;;;;;16.95;2.70;;;6.30;99.90;;;;;;5074196;28;20048;-78
2023/01/12 01:51:00;;;;;;;19.13;2.60;;;6.30;99.90;;;;;;5060092;28;20020;-77
2023/01/12 01:53:29;;;;;;;15.50;2.58;;;6.30;99.90;;;;;;5067557;28;20736;-77
2023/01/12 01:56:14;;;;;;;16.50;2.97;;;6.30;99.90;;;;;;5064982;28;20468;-78
2023/01/12 01:58:47;;;;;;;15.43;2.35;;;6.30;99.90;;;;;;5070124;28;20180;-79
2023/01/12 02:01:13;;;;;;;20.35;2.72;;;6.30;99.90;;;;;;5059995;28;20102;-77
2023/01/12 02:03:39;;;;;;;22.88;2.97;;;6.30;99.90;;;;;;5058415;28;20071;-78
2023/01/12 02:06:07;;;;;;;22.40;3.17;;;6.30;99.90;;;;;;5066143;28;20463;-77
2023/01/12 02:09:00;;;;;;;17.42;2.60;;;6.40;99.90;;;;;;5062485;28;20024;-77
2023/01/12 02:17:18;;;;;;;16.10;2.85;;;6.40;99.90;;;;;;5068975;28;20140;-78
2023/01/12 02:20:20;;;;;;;11.77;2.70;;;6.40;99.90;;;;;;5057169;28;20028;-78
2023/01/12 02:23:04;;;;;;;17.05;2.95;;;6.40;99.90;;;;;;5064760;28;20135;-75
2023/01/12 02:25:54;;;;;;;14.50;2.60;;;6.40;99.90;;;;;;5072213;28;20031;-77
2023/01/12 02:28:50;;;;;;;21.85;3.85;;;6.40;99.90;;;;;;5063322;28;20044;-76
2023/01/12 02:31:28;;;;;;;16.75;3.08;;;6.40;99.90;;;;;;5068273;28;20031;-78
2023/01/12 02:34:19;;;;;;;16.88;2.60;;;6.40;99.90;;;;;;5060507;28;20044;-78
2023/01/12 02:37:03;;;;;;;16.33;2.78;;;6.40;99.90;;;;;;5074973;28;20035;-78
2023/01/12 02:40:06;;;;;;;14.50;2.70;;;6.40;99.90;;;;;;5058954;28;20126;-78
2023/01/12 02:42:41;;;;;;;15.73;2.80;;;6.40;99.90;;;;;;5039364;28;20032;-77
2023/01/12 02:45:26;;;;;;;14.00;2.53;;;6.40;99.90;;;;;;5069206;28;20086;-78
2023/01/12 02:48:22;;;;;;;19.70;2.80;;;6.50;99.90;;;;;;5052573;28;20443;-77
2023/01/12 02:50:48;;;;;;;17.15;2.70;;;6.50;99.90;;;;;;5069401;28;20705;-77
2023/01/12 02:53:28;;;;;;;14.65;2.60;;;6.40;99.90;;;;;;5060698;28;20112;-78
2023/01/12 02:55:58;;;;;;;12.43;3.20;;;6.40;99.90;;;;;;5066183;28;20025;-77
2023/01/12 02:58:28;;;;;;;16.20;3.30;;;6.50;99.90;;;;;;5067235;28;20092;-77
2023/01/12 03:00:56;;;;;;;15.48;3.15;;;6.40;99.90;;;;;;5060791;28;20029;-77
2023/01/12 03:03:23;;;;;;;17.27;2.53;;;6.50;99.90;;;;;;5056492;28;20507;-77
2023/01/12 03:05:50;;;;;;;15.43;3.15;;;6.50;99.90;;;;;;5061947;28;20020;-78
2023/01/12 03:08:22;;;;;;;19.17;3.33;;;6.50;99.90;;;;;;5061574;28;20036;-77
2023/01/12 03:10:54;;;;;;;17.02;2.80;;;6.50;99.90;;;;;;5069000;28;20036;-77
2023/01/12 03:13:21;;;;;;;16.88;3.08;;;6.50;99.90;;;;;;5068815;28;20123;-77
2023/01/12 03:15:50;;;;;;;16.83;3.45;;;6.50;99.90;;;;;;5057511;28;20033;-77
2023/01/12 03:18:27;;;;;;;14.32;2.92;;;6.50;99.90;;;;;;5066026;28;20041;-77
2023/01/12 03:20:57;;;;;;;17.63;3.30;;;6.50;99.90;;;;;;5077657;28;20028;-77
2023/01/12 03:23:30;;;;;;;18.33;2.80;;;6.50;99.90;;;;;;5074367;28;20029;-77
2023/01/12 03:25:57;;;;;;;16.88;2.95;;;6.60;99.90;;;;;;5062235;28;20082;-76
2023/01/12 03:28:29;;;;;;;14.57;3.08;;;6.60;99.90;;;;;;5062374;28;20020;-77
2023/01/12 03:31:01;;;;;;;13.73;2.70;;;6.50;99.90;;;;;;5063217;28;20176;-78
2023/01/12 03:33:26;;;;;;;23.08;4.07;;;6.50;99.90;;;;;;5060624;28;20012;-77
2023/01/12 03:36:10;;;;;;;15.77;3.30;;;6.60;99.90;;;;;;5069347;28;20028;-77
2023/01/12 03:38:59;;;;;;;19.00;3.50;;;6.60;99.90;;;;;;5054546;28;20731;-78
2023/01/12 03:41:48;;;;;;;20.42;3.72;;;6.60;99.90;;;;;;5063434;28;20427;-78
2023/01/12 03:44:27;;;;;;;18.95;3.10;;;6.60;99.90;;;;;;5064192;28;20033;-77
2023/01/12 03:47:02;;;;;;;26.60;3.67;;;6.60;99.90;;;;;;5066144;28;20385;-77
2023/01/12 03:49:44;;;;;;;20.30;3.60;;;6.60;99.90;;;;;;5063650;28;20037;-77
2023/01/12 03:52:11;;;;;;;20.83;3.60;;;6.60;99.90;;;;;;5059418;28;20244;-77
2023/01/12 03:54:38;;;;;;;17.52;3.33;;;6.60;99.90;;;;;;5062928;28;20028;-77
2023/01/12 03:57:06;;;;;;;24.45;3.55;;;6.60;99.90;;;;;;5073454;28;20048;-77
2023/01/12 03:59:33;;;;;;;17.05;3.65;;;6.70;99.90;;;;;;5065125;28;20512;-78
2023/01/12 04:01:59;;;;;;;19.90;3.42;;;6.70;99.90;;;;;;5062641;28;20028;-78
2023/01/12 04:04:25;;;;;;;14.75;3.20;;;6.70;99.90;;;;;;5064298;28;20032;-77
2023/01/12 04:06:50;;;;;;;16.90;3.38;;;6.70;99.90;;;;;;5081784;28;20024;-77
2023/01/12 04:09:16;;;;;;;15.85;3.58;;;6.70;99.90;;;;;;5067294;28;20541;-77
2023/01/12 04:14:26;;;;;;;11.77;3.20;;;6.70;99.90;;;;;;5051738;28;20032;-77
2023/01/12 04:16:52;;;;;;;18.33;3.60;;;6.70;99.90;;;;;;5067288;28;20029;-77
2023/01/12 04:19:17;;;;;;;15.98;3.50;;;6.70;99.90;;;;;;5069032;28;20522;-78
2023/01/12 04:24:27;;;;;;;16.50;3.55;;;6.70;99.90;;;;;;5053340;28;20093;-77
2023/01/12 04:26:53;;;;;;;18.48;3.45;;;6.70;99.90;;;;;;5075087;28;20415;-77
2023/01/12 04:29:18;;;;;;;18.23;3.95;;;6.70;99.90;;;;;;5065347;28;20040;-77
2023/01/12 04:31:44;;;;;;;16.30;3.72;;;6.70;99.90;;;;;;5059871;28;20062;-77
2023/01/12 04:34:09;;;;;;;17.10;3.35;;;6.70;99.90;;;;;;5066504;28;20037;-77
2023/01/12 04:36:35;;;;;;;15.18;3.30;;;6.70;99.90;;;;;;5067465;28;20028;-78
2023/01/12 04:39:01;;;;;;;16.00;3.47;;;6.70;99.90;;;;;;5063718;28;20486;-77
2023/01/12 04:41:26;;;;;;;18.23;3.53;;;6.70;99.90;;;;;;5063968;28;20562;-78
2023/01/12 04:43:52;;;;;;;17.35;3.45;;;6.70;99.90;;;;;;5058280;28;20069;-77
2023/01/12 04:46:17;;;;;;;21.38;3.30;;;6.80;99.90;;;;;;5057085;28;20108;-78
2023/01/12 04:48:44;;;;;;;14.80;2.67;;;6.70;99.90;;;;;;5067489;28;20037;-78
2023/01/12 04:51:10;;;;;;;17.33;3.28;;;6.80;99.90;;;;;;5062665;28;20539;-78
2023/01/12 04:53:35;;;;;;;12.73;2.95;;;6.80;99.90;;;;;;5068782;28;20112;-77
2023/01/12 04:56:05;;;;;;;11.45;3.17;;;6.80;99.90;;;;;;5066730;28;20028;-78
2023/01/12 04:58:31;;;;;;;18.13;3.50;;;6.80;99.90;;;;;;5067889;28;20121;-80
2023/01/12 05:00:57;;;;;;;18.65;3.13;;;6.80;99.90;;;;;;5056285;28;20035;-78
2023/01/12 05:03:23;;;;;;;18.70;2.80;;;6.80;99.90;;;;;;5067567;28;20082;-78
2023/01/12 05:05:48;;;;;;;16.50;2.92;;;6.80;99.90;;;;;;5067732;28;20024;-77
2023/01/12 05:11:00;;;;;;;16.88;3.10;;;6.80;99.90;;;;;;5060992;28;20055;-78
2023/01/12 05:13:28;;;;;;;23.33;5.90;;;6.80;99.90;;;;;;5068325;28;20389;-78
2023/01/12 05:15:54;;;;;;;15.27;2.83;;;6.90;99.90;;;;;;5068332;28;20496;-77
2023/01/12 05:18:20;;;;;;;14.18;3.63;;;6.80;99.90;;;;;;5068094;28;20032;-77
2023/01/12 05:20:46;;;;;;;17.02;2.97;;;6.90;99.90;;;;;;5068717;28;20035;-77
2023/01/12 05:23:11;;;;;;;15.45;3.00;;;6.90;99.90;;;;;;5068486;28;20032;-78
2023/01/12 05:25:37;;;;;;;14.07;2.47;;;6.90;99.90;;;;;;5076920;28;20070;-78
2023/01/12 05:28:03;;;;;;;13.02;3.10;;;6.90;99.90;;;;;;5083458;28;20044;-78
2023/01/12 05:30:29;;;;;;;14.07;3.10;;;6.90;99.90;;;;;;5070186;28;20669;-78
2023/01/12 05:32:54;;;;;;;17.63;3.30;;;6.90;99.90;;;;;;5064152;28;20028;-78
2023/01/12 05:35:20;;;;;;;15.88;2.55;;;6.90;99.90;;;;;;5062973;28;20040;-77
2023/01/12 05:37:46;;;;;;;13.15;3.03;;;6.90;99.90;;;;;;5077242;28;20508;-77
2023/01/12 05:40:12;;;;;;;11.15;2.45;;;6.90;99.90;;;;;;5068930;28;20063;-77
2023/01/12 05:45:22;;;;;;;12.80;2.78;;;7.00;99.90;;;;;;5062991;28;20043;-77
2023/01/12 05:47:59;;;;;;;18.40;2.72;;;7.00;99.90;;;;;;5068184;28;20029;-77
2023/01/12 05:50:24;;;;;;;17.10;2.95;;;7.00;99.90;;;;;;5058637;28;20033;-77
2023/01/12 05:52:51;;;;;;;15.32;2.67;;;7.00;99.90;;;;;;5067877;28;20453;-77
2023/01/12 05:55:16;;;;;;;14.52;3.03;;;7.00;99.90;;;;;;5072612;28;20028;-77
2023/01/12 05:57:42;;;;;;;13.38;2.47;;;6.90;99.90;;;;;;5070591;28;20393;-78
2023/01/12 06:00:08;;;;;;;16.88;3.08;;;7.00;99.90;;;;;;5059219;28;20075;-78
2023/01/12 06:02:34;;;;;;;12.35;2.70;;;7.00;99.90;;;;;;5049322;28;20670;-78
2023/01/12 06:04:59;;;;;;;12.02;2.20;;;7.00;99.90;;;;;;5059512;28;20028;-78
2023/01/12 06:07:25;;;;;;;17.17;2.53;;;6.90;99.90;;;;;;5069257;28;20365;-77
2023/01/12 06:09:50;;;;;;;19.17;2.63;;;6.90;99.90;;;;;;5068657;28;20067;-80
2023/01/12 06:15:00;;;;;;;13.52;2.83;;;7.00;99.90;;;;;;5061667;28;20085;-78
2023/01/12 06:17:26;;;;;;;12.52;2.58;;;7.00;99.90;;;;;;5069666;28;20041;-79
2023/01/12 06:19:52;;;;;;;15.85;3.00;;;7.00;99.90;;;;;;5066691;28;20037;-80
2023/01/12 06:22:18;;;;;;;15.88;2.30;;;7.00;99.90;;;;;;5065461;28;20028;-80
2023/01/12 06:24:47;;;;;;;14.98;2.22;;;7.00;99.90;;;;;;5059964;28;20110;-78
2023/01/12 06:27:14;;;;;;;13.63;2.20;;;7.00;99.90;;;;;;5060231;28;20029;-79
2023/01/12 06:29:40;;;;;;;11.45;2.30;;;7.00;99.90;;;;;;5054341;28;20028;-79
2023/01/12 06:32:06;;;;;;;14.77;2.05;;;7.00;99.90;;;;;;5056090;28;20032;-79
2023/01/12 06:34:34;;;;;;;14.48;2.38;;;7.00;99.90;;;;;;5057298;28;20033;-79
2023/01/12 06:37:01;;;;;;;11.05;2.22;;;7.10;99.90;;;;;;5056269;28;20117;-80
2023/01/12 06:39:28;;;;;;;11.07;2.58;;;;;;;;;;5065481;28;20104;-79
2023/01/12 06:42:54;;;;;;;9.80;1.83;;;;;;;;;;5074069;28;20030;-77
2023/01/12 06:44:49;;;;;;;12.55;2.25;;;7.10;99.90;;;;;;5060160;28;20560;-80
2023/01/12 06:47:14;;;;;;;8.95;2.00;;;7.10;99.90;;;;;;5069810;28;20174;-80
2023/01/12 06:49:40;;;;;;;9.15;1.80;;;7.10;99.90;;;;;;5067394;28;20713;-80
2023/01/12 06:52:06;;;;;;;18.63;3.58;;;7.10;99.90;;;;;;5065676;28;20410;-80
2023/01/12 06:54:31;;;;;;;27.52;9.98;;;7.10;99.90;;;;;;5057831;28;20021;-79
2023/01/12 06:56:57;;;;;;;24.42;8.35;;;7.10;99.90;;;;;;5062237;28;20031;-80
2023/01/12 06:59:22;;;;;;;28.98;11.23;;;7.10;99.90;;;;;;5057784;28;20025;-80
2023/01/12 07:01:48;;;;;;;16.00;5.95;;;7.00;99.90;;;;;;5050736;28;20036;-79
2023/01/12 07:04:13;;;;;;;15.32;4.93;;;7.10;99.90;;;;;;5058636;28;20032;-79
2023/01/12 07:06:39;;;;;;;9.48;3.05;;;7.00;99.90;;;;;;5052972;28;20511;-79
2023/01/12 07:09:05;;;;;;;14.65;3.20;;;7.00;99.90;;;;;;5058560;28;20036;-77
2023/01/12 07:11:31;;;;;;;14.98;3.35;;;7.00;99.90;;;;;;5062530;28;20077;-77
2023/01/12 07:13:57;;;;;;;17.02;2.70;;;7.00;99.90;;;;;;5065632;28;20048;-78
2023/01/12 07:16:23;;;;;;;13.65;2.72;;;6.90;99.90;;;;;;5052689;28;20178;-79
2023/01/12 07:18:49;;;;;;;13.32;3.10;;;7.00;99.90;;;;;;5065840;28;20059;-79
2023/01/12 07:21:16;;;;;;;11.68;2.35;;;7.00;99.90;;;;;;5061229;28;20549;-79
2023/01/12 07:23:42;;;;;;;13.32;2.88;;;;;;;;;;5075398;28;20404;-77
2023/01/12 07:26:12;;;;;;;13.93;3.05;;;7.00;99.90;;;;;;5081099;28;20035;-79
2023/01/12 07:28:37;;;;;;;12.23;2.40;;;7.00;99.90;;;;;;5061886;28;20036;-79
2023/01/12 07:31:05;;;;;;;10.25;2.78;;;7.00;99.90;;;;;;5055873;28;20031;-78
2023/01/12 07:33:33;;;;;;;11.80;3.17;;;6.90;99.90;;;;;;5067094;28;21027;-78
2023/01/12 07:36:00;;;;;;;18.83;6.20;;;6.90;99.90;;;;;;5063524;28;20029;-78
2023/01/12 07:38:29;;;;;;;13.07;3.60;;;7.00;99.90;;;;;;5069620;28;20039;-77
2023/01/12 07:41:02;;;;;;;13.35;3.60;;;6.90;99.90;;;;;;5066181;28;20028;-79
2023/01/12 07:43:29;;;;;;;12.02;2.70;;;7.00;99.90;;;;;;5061505;28;20048;-79
2023/01/12 07:45:56;;;;;;;10.35;2.35;;;7.00;99.90;;;;;;5069473;28;20069;-78
2023/01/12 07:48:23;;;;;;;8.90;2.28;;;7.00;99.90;;;;;;5057967;28;20528;-78
2023/01/12 07:50:49;;;;;;;13.55;2.80;;;7.00;99.90;;;;;;5071748;28;20036;-78
2023/01/12 07:53:15;;;;;;;7.53;2.70;;;7.00;99.90;;;;;;5065682;28;20043;-77
2023/01/12 07:55:42;;;;;;;8.38;3.28;;;7.00;99.90;;;;;;5059431;28;20127;-77
2023/01/12 07:58:08;;;;;;;11.25;2.90;;;7.00;99.90;;;;;;5066040;28;20157;-77
2023/01/12 08:00:34;;;;;;;11.45;3.78;;;7.00;99.90;;;;;;5056626;28;20039;-77
2023/01/12 08:03:06;;;;;;;8.77;2.65;;;7.00;99.90;;;;;;5061097;28;20399;-77
2023/01/12 08:05:32;;;;;;;12.27;2.42;;;7.00;99.90;;;;;;5061707;28;20032;-77
2023/01/12 08:07:58;;;;;;;9.88;2.60;;;6.90;99.90;;;;;;5055013;28;20020;-77
2023/01/12 08:10:24;;;;;;;8.90;2.10;;;7.00;99.90;;;;;;5065867;28;20492;-77
2023/01/12 08:12:50;;;;;;;11.38;2.00;;;7.00;99.90;;;;;;5060513;28;20163;-77
2023/01/12 08:15:16;;;;;;;11.43;3.72;;;7.00;99.90;;;;;;5055516;28;20458;-77
2023/01/12 08:17:48;;;;;;;10.52;2.90;;;7.00;99.90;;;;;;5057435;28;20371;-77
2023/01/12 08:20:18;;;;;;;16.67;3.15;;;7.00;99.90;;;;;;5058162;28;20124;-77
2023/01/12 08:22:50;;;;;;;9.20;2.60;;;7.00;99.90;;;;;;5065578;28;20035;-77
2023/01/12 08:25:20;;;;;;;9.10;2.10;;;7.00;99.90;;;;;;5080795;28;20393;-77
2023/01/12 08:27:50;;;;;;;7.90;1.63;;;7.00;99.90;;;;;;5059377;28;20384;-78
2023/01/12 08:30:20;;;;;;;9.75;2.88;;;6.90;99.90;;;;;;5071817;28;20035;-77
2023/01/12 08:32:45;;;;;;;12.35;2.95;;;6.90;99.90;;;;;;5059988;28;20111;-77
2023/01/12 08:35:15;;;;;;;8.57;1.70;;;7.00;99.90;;;;;;5064987;28;20135;-77
2023/01/12 08:37:41;;;;;;;7.05;1.98;;;6.90;99.90;;;;;;5064509;28;20044;-77
2023/01/12 08:40:08;;;;;;;7.82;1.88;;;7.00;99.90;;;;;;5059677;28;20040;-77
2023/01/12 08:42:33;;;;;;;5.50;1.80;;;7.00;99.90;;;;;;5050999;28;20032;-77
2023/01/12 08:44:59;;;;;;;5.97;1.70;;;7.00;99.90;;;;;;5066220;28;20141;-77
2023/01/12 08:47:29;;;;;;;7.85;2.72;;;7.00;99.90;;;;;;5066394;28;20395;-77
2023/01/12 08:49:54;;;;;;;7.38;1.95;;;7.00;99.90;;;;;;5082064;28;20111;-76
2023/01/12 08:52:20;;;;;;;7.40;1.92;;;7.20;99.90;;;;;;5071795;28;20591;-76
2023/01/12 08:54:47;;;;;;;7.55;2.72;;;7.20;99.90;;;;;;5067325;28;20083;-76
2023/01/12 08:57:15;;;;;;;5.35;1.55;;;7.20;99.90;;;;;;5068366;28;20060;-76
2023/01/12 08:59:40;;;;;;;5.28;1.83;;;7.10;99.90;;;;;;5069236;28;20098;-76
2023/01/12 09:02:06;;;;;;;7.45;1.92;;;7.10;99.90;;;;;;5059633;28;20036;-77
2023/01/12 09:04:31;;;;;;;8.90;1.95;;;7.10;99.90;;;;;;5067972;28;20028;-77
2023/01/12 09:06:57;;;;;;;7.88;2.03;;;7.10;99.90;;;;;;5076195;28;20060;-77
2023/01/12 09:09:23;;;;;;;10.80;1.92;;;7.10;99.90;;;;;;5069610;28;20017;-76
2023/01/12 09:11:49;;;;;;;5.28;1.20;;;7.10;99.90;;;;;;5069324;28;20496;-76
2023/01/12 09:14:15;;;;;;;3.60;1.10;;;7.10;99.90;;;;;;5065333;28;20028;-77
2023/01/12 09:16:41;;;;;;;4.80;1.30;;;7.10;99.90;;;;;;5076972;28;20028;-76
2023/01/12 09:19:07;;;;;;;4.65;1.13;;;7.10;99.90;;;;;;5074610;28;20132;-77
2023/01/12 09:21:37;;;;;;;9.13;1.40;;;7.10;99.90;;;;;;5063488;28;20131;-77
2023/01/12 09:24:03;;;;;;;5.07;1.40;;;7.10;99.90;;;;;;5082085;28;20565;-76
2023/01/12 09:26:30;;;;;;;4.50;1.33;;;7.10;99.90;;;;;;5070336;28;20028;-77
2023/01/12 09:29:00;;;;;;;4.38;1.40;;;7.10;99.90;;;;;;5076923;28;20063;-76
2023/01/12 09:31:27;;;;;;;4.43;1.50;;;7.20;99.90;;;;;;5064679;28;20436;-77
2023/01/12 09:33:54;;;;;;;5.63;1.70;;;7.20;99.90;;;;;;5057914;28;20047;-77
2023/01/12 09:36:25;;;;;;;6.47;1.20;;;7.20;99.90;;;;;;5056145;28;20036;-76
2023/01/12 09:38:52;;;;;;;4.07;1.73;;;7.20;99.90;;;;;;5063397;28;20074;-77
2023/01/12 09:47:07;;;;;;;4.82;1.40;;;7.20;99.90;;;;;;5080024;28;20039;-76
2023/01/12 09:49:39;;;;;;;5.95;1.80;;;7.20;99.90;;;;;;5072305;28;20427;-76
2023/01/12 09:52:17;;;;;;;2.80;1.10;;;7.20;99.90;;;;;;5079214;28;20055;-77
2023/01/12 09:54:47;;;;;;;5.10;1.10;;;7.20;99.90;;;;;;5062641;28;20028;-76
2023/01/12 09:57:34;;;;;;;5.97;1.48;;;7.20;99.90;;;;;;5058747;28;20056;-76
2023/01/12 10:00:02;;;;;;;3.67;1.40;;;7.30;99.90;;;;;;5071696;28;20506;-76
2023/01/12 10:02:34;;;;;;;5.35;1.60;;;7.30;99.90;;;;;;5054825;28;20036;-76
2023/01/12 10:05:05;;;;;;;5.88;1.60;;;7.30;99.90;;;;;;5061616;28;20513;-76
2023/01/12 10:07:30;;;;;;;4.78;1.70;;;7.30;99.90;;;;;;5062093;28;20025;-76
2023/01/12 10:09:57;;;;;;;5.28;1.60;;;7.30;99.90;;;;;;5061875;28;20036;-76
2023/01/12 10:12:32;;;;;;;7.82;1.95;;;7.30;99.90;;;;;;5066854;28;20068;-76
2023/01/12 10:15:23;;;;;;;4.05;1.20;;;7.40;99.90;;;;;;5068278;28;20036;-82
2023/01/12 10:17:55;;;;;;;3.67;1.40;;;7.40;99.90;;;;;;5054462;28;20390;-82
2023/01/12 10:20:36;;;;;;;6.72;1.42;;;7.40;99.90;;;;;;5056624;28;20024;-81
2023/01/12 10:23:08;;;;;;;5.30;1.50;;;7.40;99.90;;;;;;5059621;28;20278;-82
2023/01/12 10:25:37;;;;;;;5.93;1.50;;;;;;;;;;5054913;28;20028;-81
2023/01/12 10:28:21;;;;;;;8.90;2.65;;;7.50;99.90;;;;;;5065080;28;20611;-84
2023/01/12 10:30:47;;;;;;;6.65;1.60;;;7.50;99.90;;;;;;5058718;28;20033;-83
2023/01/12 10:33:16;;;;;;;5.15;2.17;;;7.50;99.90;;;;;;5047139;28;20028;-84
2023/01/12 10:35:56;;;;;;;4.72;1.33;;;7.60;99.90;;;;;;5056351;28;20036;-84
2023/01/12 10:38:32;;;;;;;7.07;1.45;;;7.60;99.90;;;;;;5063702;28;20024;-84
2023/01/12 10:41:15;;;;;;;8.15;1.50;;;7.70;99.90;;;;;;5060787;28;20682;-84
2023/01/12 10:43:42;;;;;;;7.93;3.70;;;7.60;99.90;;;;;;5054337;28;20083;-83
2023/01/12 10:46:17;;;;;;;7.45;2.22;;;7.70;99.90;;;;;;5064547;28;20056;-85
2023/01/12 10:48:48;;;;;;;8.00;3.33;;;7.70;99.90;;;;;;5057873;28;20562;-85
2023/01/12 10:51:37;;;;;;;4.78;1.77;;;7.70;99.90;;;;;;5062721;28;20052;-85
2023/01/12 10:54:17;;;;;;;4.20;1.80;;;7.70;99.90;;;;;;5063285;28;20020;-85
2023/01/12 10:56:57;;;;;;;3.60;1.90;;;7.70;99.90;;;;;;5050885;28;20032;-84
2023/01/12 10:59:28;;;;;;;8.68;3.35;;;7.70;99.90;;;;;;5061273;28;20428;-84
2023/01/12 11:02:10;;;;;;;5.75;2.50;;;7.70;99.90;;;;;;5055857;28;20400;-83
2023/01/12 11:04:47;;;;;;;4.75;2.60;;;7.80;99.90;;;;;;5054090;28;20090;-83
2023/01/12 11:07:25;;;;;;;5.47;2.25;;;7.80;99.90;;;;;;5058749;28;20043;-84
2023/01/12 11:09:53;;;;;;;5.50;2.08;;;7.80;99.90;;;;;;5068161;28;20569;-85
2023/01/12 11:12:22;;;;;;;3.95;2.15;;;7.90;99.90;;;;;;5060996;28;20065;-84
2023/01/12 11:15:14;;;;;;;5.53;2.00;;;7.90;99.90;;;;;;5058968;28;20031;-84
2023/01/12 11:17:58;;;;;;;3.13;1.50;;;7.90;99.90;;;;;;5075903;28;20025;-84
2023/01/12 11:20:30;;;;;;;4.90;1.80;;;7.90;99.90;;;;;;5077361;28;20053;-84
2023/01/12 11:23:00;;;;;;;4.63;2.70;;;7.90;99.90;;;;;;5059175;28;20086;-84
2023/01/12 11:25:29;;;;;;;6.43;2.60;;;8.00;99.90;;;;;;5061907;28;20061;-84
2023/01/12 11:28:09;;;;;;;7.68;4.00;;;8.00;99.90;;;;;;5055634;28;20028;-84
2023/01/12 11:30:43;;;;;;;6.90;3.63;;;8.00;99.90;;;;;;5054313;28;20029;-84
2023/01/12 11:33:20;;;;;;;6.47;3.75;;;8.00;99.90;;;;;;5052322;28;20024;-83
2023/01/12 11:35:58;;;;;;;3.50;1.45;;;8.00;99.90;;;;;;5053798;28;20082;-83
2023/01/12 11:38:32;;;;;;;12.93;4.88;;;8.00;99.90;;;;;;5058153;28;20028;-83
2023/01/12 11:40:58;;;;;;;5.85;3.00;;;8.00;99.90;;;;;;5059122;28;20735;-84
2023/01/12 11:43:48;;;;;;;8.23;3.78;;;8.10;99.90;;;;;;5053829;28;20028;-83
2023/01/12 11:46:35;;;;;;;3.28;1.60;;;8.10;99.90;;;;;;5059695;28;20029;-83
2023/01/12 11:49:06;;;;;;;2.90;1.02;;;8.00;99.90;;;;;;5060096;28;20080;-83
2023/01/12 11:51:31;;;;;;;2.28;1.40;;;8.10;99.90;;;;;;5056653;28;20504;-84
2023/01/12 11:53:58;;;;;;;2.60;1.15;;;8.10;99.90;;;;;;5067877;28;20046;-84
2023/01/12 11:56:42;;;;;;;2.63;1.20;;;8.10;99.90;;;;;;5059507;28;20036;-84
2023/01/12 11:59:21;;;;;;;4.20;1.25;;;8.10;99.90;;;;;;5054537;28;20048;-84
2023/01/12 12:02:23;;;;;;;0.85;0.80;;;8.10;99.90;;;;;;5051234;28;20032;-83
2023/01/12 12:05:30;;;;;;;2.42;1.20;;;8.10;99.90;;;;;;5062905;28;20029;-80
2023/01/12 12:08:38;;;;;;;2.22;1.00;;;8.10;99.90;;;;;;5053773;28;20539;-82
2023/01/12 12:11:16;;;;;;;2.00;0.80;;;8.20;99.90;;;;;;5025779;28;20036;-81
2023/01/12 12:13:59;;;;;;;1.95;1.02;;;8.20;99.90;;;;;;5077390;28;20035;-83
2023/01/12 12:16:29;;;;;;;3.67;1.23;;;8.20;99.90;;;;;;5060081;28;20035;-81
2023/01/12 12:19:21;;;;;;;4.43;1.40;;;8.20;99.90;;;;;;5066243;28;20043;-82
2023/01/12 12:21:56;;;;;;;2.10;0.90;;;8.20;99.90;;;;;;5056565;28;20028;-82
2023/01/12 12:24:30;;;;;;;1.77;1.00;;;8.20;99.90;;;;;;5058923;28;20461;-83
2023/01/12 12:27:10;;;;;;;4.28;1.20;;;8.20;99.90;;;;;;5060990;28;20020;-82
2023/01/12 12:30:06;;;;;;;4.20;2.10;;;8.20;99.90;;;;;;5068971;28;20031;-82
2023/01/12 12:32:49;;;;;;;8.52;5.30;;;8.20;99.90;;;;;;5059400;28;20597;-81
2023/01/12 12:35:27;;;;;;;;;;;8.30;99.90;;;;;;5062420;28;20033;-81
2023/01/12 12:38:10;;;;;;;1.67;1.02;;;8.30;99.90;;;;;;5053053;28;19916;-81
2023/01/12 12:46:59;;;;;;;3.28;1.15;;;8.30;99.90;;;;;;5071685;28;20046;-82
2023/01/12 12:49:31;;;;;;;3.80;1.50;;;8.30;99.90;;;;;;5060932;28;20405;-82
2023/01/12 12:51:58;;;;;;;2.65;1.00;;;8.20;99.90;;;;;;5061660;28;20050;-82
2023/01/12 12:54:25;;;;;;;3.60;1.70;;;8.30;99.90;;;;;;5067164;28;20032;-81
2023/01/12 12:56:51;;;;;;;2.65;1.52;;;8.20;99.90;;;;;;5058674;28;20054;-82
2023/01/12 12:59:31;;;;;;;2.92;1.38;;;8.30;99.90;;;;;;5057984;28;20062;-82
2023/01/12 13:02:02;;;;;;;4.53;1.30;;;8.30;99.90;;;;;;5054782;28;20488;-81
2023/01/12 13:04:43;;;;;;;4.80;1.35;;;8.30;99.90;;;;;;5061588;28;20048;-82
2023/01/12 13:07:20;;;;;;;4.60;1.13;;;8.30;99.90;;;;;;5066188;28;20124;-82
2023/01/12 13:09:46;;;;;;;4.30;1.00;;;8.30;99.90;;;;;;5063650;28;20033;-84
2023/01/12 13:12:32;;;;;;;4.40;1.02;;;8.30;99.90;;;;;;5055176;28;20543;-83
2023/01/12 13:15:22;;;;;;;3.42;1.20;;;8.30;99.90;;;;;;5053293;28;20464;-84
2023/01/12 13:17:51;;;;;;;2.72;1.00;;;8.20;99.90;;;;;;5057811;28;20025;-84
2023/01/12 13:20:17;;;;;;;3.22;1.20;;;8.30;99.90;;;;;;5064313;28;20086;-84
2023/01/12 13:22:49;;;;;;;5.93;2.72;;;8.30;99.90;;;;;;5068392;28;20040;-84
2023/01/12 13:25:14;;;;;;;3.50;3.20;;;8.30;99.90;;;;;;5056636;28;20086;-81
2023/01/12 13:27:51;;;;;;;5.78;3.40;;;8.30;99.90;;;;;;5069259;28;20021;-83
2023/01/12 13:30:28;;;;;;;4.13;2.13;;;8.20;99.90;;;;;;5061829;28;20061;-84
2023/01/12 13:33:14;;;;;;;2.60;1.40;;;8.30;99.90;;;;;;5071920;28;20043;-83
2023/01/12 13:35:43;;;;;;;3.08;1.40;;;8.30;99.90;;;;;;5064508;28;20119;-84
2023/01/12 13:38:20;;;;;;;3.40;1.70;;;8.30;99.90;;;;;;5067522;28;20035;-83
2023/01/12 13:40:46;;;;;;;3.38;1.70;;;8.30;99.90;;;;;;5061636;28;20498;-83
2023/01/12 13:43:35;;;;;;;2.97;1.40;;;8.20;99.90;;;;;;5068283;28;20028;-83
2023/01/12 13:46:09;;;;;;;4.38;1.20;;;8.20;99.90;;;;;;5065333;28;20058;-83
2023/01/12 13:48:35;;;;;;;3.80;1.63;;;8.20;99.90;;;;;;5058710;28;20044;-83
2023/01/12 13:51:17;;;;;;;3.13;1.02;;;8.20;99.90;;;;;;5068098;28;20104;-82